Time;durP1;ratioP1;P1;durP2;ratioP2;P2;SDS_P1;SDS_P2;PMS_P1;PMS_P2;Temp;Humidity;BMP_temperature;BMP_pressure;BME280_temperature;BME280_humidity;BME280_pressure;Samples;Min_cycle;Max_cycle;Signal;HPM_P1;HPM_P2
2020/12/05 00:00:36;;;;;;;16.33;14.73;;;;;20.70;98058.00;;;;2095463;28;20224;-47
2020/12/05 00:01:37;;;;;;;15.70;14.10;;;;;20.70;98057.00;;;;2095338;28;20231;-47
2020/12/05 00:02:37;;;;;;;16.40;14.80;;;;;20.70;98057.00;;;;2095409;28;20683;-47
2020/12/05 00:03:37;;;;;;;16.93;15.17;;;;;20.80;98059.00;;;;2093340;28;20219;-46
2020/12/05 00:04:38;;;;;;;17.07;15.00;;;;;20.70;98062.00;;;;2094509;28;20725;-47
2020/12/05 00:05:40;;;;;;;16.63;14.77;;;;;20.70;98063.00;;;;2093716;28;20223;-47
2020/12/05 00:06:41;;;;;;;16.25;14.60;;;;;20.70;98065.00;;;;2092368;28;20747;-47
2020/12/05 00:07:42;;;;;;;16.57;14.77;;;;;20.70;98066.00;;;;2092524;28;20234;-47
2020/12/05 00:08:42;;;;;;;15.27;13.77;;;;;20.70;98068.00;;;;2086745;28;20229;-46
2020/12/05 00:09:42;;;;;;;15.50;14.00;;;;;20.70;98059.00;;;;2077732;28;20486;-47
2020/12/05 00:10:43;;;;;;;15.43;13.83;;;;;20.70;98062.00;;;;2094200;28;20222;-47
2020/12/05 00:11:43;;;;;;;15.53;13.93;;;;;20.70;98060.00;;;;2091259;28;20694;-47
2020/12/05 00:12:43;;;;;;;15.30;13.70;;;;;20.70;98062.00;;;;2087177;28;20601;-47
2020/12/05 00:13:44;;;;;;;14.80;13.30;;;;;20.60;98057.00;;;;2088148;28;20705;-47
2020/12/05 00:14:44;;;;;;;14.20;12.83;;;;;20.70;98068.00;;;;2085553;28;20589;-47
2020/12/05 00:15:44;;;;;;;13.37;12.03;;;;;20.70;98065.00;;;;2086404;28;21284;-47
2020/12/05 00:16:49;;;;;;;13.90;12.40;;;;;20.70;98069.00;;;;2089566;28;20215;-47
2020/12/05 00:17:49;;;;;;;15.18;13.55;;;;;20.70;98067.00;;;;2091502;28;20292;-47
2020/12/05 00:18:54;;;;;;;13.50;12.20;;;;;20.60;98070.00;;;;2087170;28;20215;-47
2020/12/05 00:19:54;;;;;;;13.52;12.23;;;;;20.70;98078.00;;;;2087251;28;20215;-47
2020/12/05 00:20:55;;;;;;;12.90;11.63;;;;;20.70;98072.00;;;;2087103;28;20227;-47
2020/12/05 00:21:56;;;;;;;14.10;12.60;;;;;20.70;98080.00;;;;2087168;28;20316;-47
2020/12/05 00:22:56;;;;;;;13.37;12.00;;;;;20.60;98072.00;;;;2087055;28;20242;-47
2020/12/05 00:23:56;;;;;;;13.57;12.17;;;;;20.70;98075.00;;;;2087242;28;20455;-47
2020/12/05 00:24:57;;;;;;;12.70;11.50;;;;;20.70;98075.00;;;;2086309;28;20224;-47
2020/12/05 00:25:57;;;;;;;13.13;11.77;;;;;20.60;98077.00;;;;2087098;28;20242;-47
2020/12/05 00:26:57;;;;;;;13.23;11.83;;;;;20.60;98069.00;;;;2086881;28;20214;-47
2020/12/05 00:27:58;;;;;;;12.00;10.83;;;;;20.60;98083.00;;;;2087079;28;20262;-47
2020/12/05 00:28:58;;;;;;;12.10;10.90;;;;;20.60;98081.00;;;;2091393;28;20211;-47
2020/12/05 00:29:58;;;;;;;11.00;10.00;;;;;20.60;98082.00;;;;2095356;28;20222;-47
2020/12/05 00:30:58;;;;;;;12.63;11.43;;;;;20.60;98085.00;;;;2095132;28;20287;-47
2020/12/05 00:31:59;;;;;;;12.27;11.13;;;;;20.60;98084.00;;;;2095274;28;20207;-47
2020/12/05 00:33:00;;;;;;;12.13;11.03;;;;;20.60;98091.00;;;;2095155;28;20214;-47
2020/12/05 00:34:00;;;;;;;11.65;10.45;;;;;20.70;98087.00;;;;2095217;28;20731;-47
2020/12/05 00:35:01;;;;;;;12.00;10.77;;;;;20.60;98086.00;;;;2094452;28;20226;-47
2020/12/05 00:36:02;;;;;;;12.70;11.40;;;;;20.60;98078.00;;;;2095360;28;25067;-47
2020/12/05 00:37:02;;;;;;;10.95;9.95;;;;;20.60;98081.00;;;;2095008;28;20256;-47
2020/12/05 00:38:02;;;;;;;11.97;10.87;;;;;20.60;98089.00;;;;2095246;28;20679;-47
2020/12/05 00:39:03;;;;;;;10.13;9.23;;;;;20.50;98086.00;;;;2095362;28;20699;-47
2020/12/05 00:40:05;;;;;;;11.43;10.33;;;;;20.60;98091.00;;;;2095236;28;20210;-47
2020/12/05 00:41:07;;;;;;;11.30;10.20;;;;;20.60;98090.00;;;;2095246;28;20845;-47
2020/12/05 00:42:07;;;;;;;10.50;9.57;;;;;20.60;98081.00;;;;2095439;28;20259;-47
2020/12/05 00:43:10;;;;;;;10.33;9.43;;;;;20.60;98080.00;;;;2089473;28;20220;-47
2020/12/05 00:44:10;;;;;;;10.60;9.60;;;;;20.50;98076.00;;;;2090551;28;20215;-47
2020/12/05 00:45:10;;;;;;;10.27;9.27;;;;;20.50;98078.00;;;;2094473;28;20575;-47
2020/12/05 00:46:11;;;;;;;10.53;9.43;;;;;20.50;98084.00;;;;2092648;28;20211;-47
2020/12/05 00:47:11;;;;;;;10.50;9.47;;;;;20.60;98075.00;;;;2092171;28;20234;-47
2020/12/05 00:48:11;;;;;;;10.40;9.30;;;;;20.60;98072.00;;;;2088796;28;20209;-47
2020/12/05 00:49:12;;;;;;;9.83;8.90;;;;;20.50;98073.00;;;;2086881;28;20218;-47
2020/12/05 00:50:12;;;;;;;10.83;9.33;;;;;20.50;98071.00;;;;2087051;28;20213;-47
2020/12/05 00:51:12;;;;;;;12.13;10.90;;;;;20.50;98072.00;;;;2086834;28;20230;-47
2020/12/05 00:52:13;;;;;;;11.87;10.60;;;;;20.40;98069.00;;;;2087104;28;20218;-47
2020/12/05 00:53:13;;;;;;;11.13;10.07;;;;;20.50;98071.00;;;;2087010;28;20215;-47
2020/12/05 00:54:14;;;;;;;10.30;9.30;;;;;20.50;98067.00;;;;2084802;28;20212;-47
2020/12/05 00:55:14;;;;;;;10.57;9.20;;;;;20.60;98066.00;;;;2085440;28;20242;-49
2020/12/05 00:56:19;;;;;;;10.53;9.47;;;;;20.50;98061.00;;;;2080271;28;21030;-49
2020/12/05 00:57:19;;;;;;;11.82;8.82;;;;;20.60;98058.00;;;;2078260;28;20287;-47
2020/12/05 00:58:19;;;;;;;10.30;9.20;;;;;20.60;98060.00;;;;2086221;28;20668;-47
2020/12/05 00:59:20;;;;;;;10.43;9.43;;;;;20.60;98046.00;;;;2086850;28;20233;-47
2020/12/05 01:00:20;;;;;;;10.70;9.67;;;;;20.60;98063.00;;;;2087085;28;20580;-47
2020/12/05 01:01:20;;;;;;;11.40;8.90;;;;;20.60;98066.00;;;;2086927;28;20210;-47
2020/12/05 01:02:23;;;;;;;10.20;8.30;;;;;20.50;98070.00;;;;2086767;28;20221;-47
2020/12/05 01:03:24;;;;;;;10.85;9.75;;;;;20.50;98075.00;;;;2086359;28;20215;-47
2020/12/05 01:04:24;;;;;;;10.20;9.20;;;;;20.50;98059.00;;;;2086352;28;20295;-47
2020/12/05 01:05:24;;;;;;;10.07;9.07;;;;;20.50;98062.00;;;;2086331;28;20253;-47
2020/12/05 01:06:25;;;;;;;10.63;8.57;;;;;20.50;98064.00;;;;2087084;28;20223;-47
2020/12/05 01:07:26;;;;;;;9.17;8.27;;;;;20.50;98062.00;;;;2086312;28;20215;-47
2020/12/05 01:08:26;;;;;;;9.57;8.67;;;;;20.50;98054.00;;;;2086657;28;20231;-47
2020/12/05 01:09:26;;;;;;;9.47;8.57;;;;;20.50;98055.00;;;;2078680;28;20291;-47
2020/12/05 01:10:27;;;;;;;9.67;8.27;;;;;20.50;98063.00;;;;2078807;28;20212;-47
2020/12/05 01:11:27;;;;;;;10.00;8.90;;;;;20.50;98059.00;;;;2078867;28;20209;-47
2020/12/05 01:12:27;;;;;;;10.60;9.37;;;;;20.50;98058.00;;;;2087094;28;20272;-47
2020/12/05 01:13:28;;;;;;;8.40;7.60;;;;;20.50;98065.00;;;;2086631;28;20228;-47
2020/12/05 01:14:29;;;;;;;8.07;7.33;;;;;20.50;98064.00;;;;2086064;28;20286;-46
2020/12/05 01:15:29;;;;;;;9.17;8.27;;;;;20.50;98067.00;;;;2084126;28;20442;-47
2020/12/05 01:16:31;;;;;;;9.57;8.60;;;;;20.40;98062.00;;;;2084153;28;20198;-47
2020/12/05 01:17:35;;;;;;;10.43;8.48;;;;;20.40;98065.00;;;;2083717;28;20203;-46
2020/12/05 01:18:36;;;;;;;9.00;8.15;;;;;20.50;98067.00;;;;2078408;28;20211;-47
2020/12/05 01:19:36;;;;;;;8.73;7.83;;;;;20.50;98067.00;;;;2078749;28;20221;-47
2020/12/05 01:20:36;;;;;;;8.73;8.03;;;;;20.50;98064.00;;;;2078876;28;20224;-47
2020/12/05 01:21:37;;;;;;;9.33;8.40;;;;;20.40;98069.00;;;;2078679;28;20250;-47
2020/12/05 01:22:37;;;;;;;8.53;7.63;;;;;20.40;98073.00;;;;2079260;28;20219;-46
2020/12/05 01:23:38;;;;;;;9.27;8.37;;;;;20.40;98083.00;;;;2080501;28;20211;-47
2020/12/05 01:24:38;;;;;;;8.13;7.40;;;;;20.50;98083.00;;;;2079530;28;20211;-46
2020/12/05 01:25:38;;;;;;;8.67;7.87;;;;;20.40;98081.00;;;;2080125;28;20208;-46
2020/12/05 01:26:39;;;;;;;10.30;7.77;;;;;20.40;98079.00;;;;2080384;28;20215;-46
2020/12/05 01:27:39;;;;;;;8.83;7.97;;;;;20.40;98096.00;;;;2079964;28;20868;-47
2020/12/05 01:28:39;;;;;;;8.07;7.27;;;;;20.40;98094.00;;;;2080328;28;20683;-47
2020/12/05 01:29:40;;;;;;;9.27;7.90;;;;;20.40;98096.00;;;;2079974;28;20248;-47
2020/12/05 01:30:40;;;;;;;9.27;7.80;;;;;20.40;98096.00;;;;2079950;28;20216;-47
2020/12/05 01:31:40;;;;;;;8.63;7.60;;;;;20.40;98098.00;;;;2080297;28;20219;-47
2020/12/05 01:32:41;;;;;;;8.27;7.47;;;;;20.40;98098.00;;;;2080476;28;20243;-47
2020/12/05 01:33:41;;;;;;;9.10;8.20;;;;;20.40;98111.00;;;;2080334;28;20221;-46
2020/12/05 01:34:41;;;;;;;8.60;7.80;;;;;20.40;98109.00;;;;2079787;28;20246;-46
2020/12/05 01:35:42;;;;;;;8.00;7.03;;;;;20.40;98108.00;;;;2079979;28;20214;-47
2020/12/05 01:36:44;;;;;;;7.50;6.80;;;;;20.40;98115.00;;;;2078811;28;20207;-47
2020/12/05 01:37:44;;;;;;;7.63;6.93;;;;;20.40;98112.00;;;;2082428;28;20303;-47
2020/12/05 01:38:44;;;;;;;7.80;7.07;;;;;20.40;98113.00;;;;2088486;28;20215;-47
2020/12/05 01:39:45;;;;;;;8.50;7.70;;;;;20.40;98112.00;;;;2088441;28;20655;-47
2020/12/05 01:40:50;;;;;;;7.73;7.03;;;;;20.40;98114.00;;;;2088437;28;20225;-47
2020/12/05 01:41:51;;;;;;;7.97;6.72;;;;;20.40;98119.00;;;;2087913;28;20583;-47
2020/12/05 01:42:52;;;;;;;7.13;6.43;;;;;20.40;98119.00;;;;2088393;28;20216;-47
2020/12/05 01:43:52;;;;;;;8.13;6.93;;;;;20.40;98122.00;;;;2088509;28;20970;-47
2020/12/05 01:44:52;;;;;;;6.50;5.90;;;;;20.40;98119.00;;;;2087574;28;20487;-46
2020/12/05 01:45:53;;;;;;;7.43;6.77;;;;;20.40;98121.00;;;;2086946;28;20304;-47
2020/12/05 01:46:53;;;;;;;7.27;6.57;;;;;20.40;98120.00;;;;2089197;28;20254;-47
2020/12/05 01:47:53;;;;;;;7.77;7.00;;;;;20.40;98104.00;;;;2079244;28;20724;-47
2020/12/05 01:48:54;;;;;;;7.53;6.87;;;;;20.40;98125.00;;;;2079614;28;20719;-47
2020/12/05 01:49:54;;;;;;;7.03;6.43;;;;;20.40;98123.00;;;;2079637;28;20219;-47
2020/12/05 01:50:55;;;;;;;6.80;6.20;;;;;20.40;98124.00;;;;2078930;28;20262;-46
2020/12/05 01:51:55;;;;;;;7.70;7.00;;;;;20.40;98122.00;;;;2087644;28;20214;-48
2020/12/05 01:52:55;;;;;;;6.63;6.03;;;;;20.40;98122.00;;;;2083453;28;20216;-48
2020/12/05 01:53:56;;;;;;;7.00;6.40;;;;;20.40;98126.00;;;;2084480;28;20241;-47
2020/12/05 01:54:56;;;;;;;6.90;6.30;;;;;20.30;98122.00;;;;2087920;28;20208;-46
2020/12/05 01:55:57;;;;;;;7.40;6.70;;;;;20.40;98125.00;;;;2087602;28;20239;-47
2020/12/05 01:57:03;;;;;;;7.40;6.70;;;;;20.30;98118.00;;;;2092928;28;20698;-47
2020/12/05 01:58:03;;;;;;;6.60;6.00;;;;;20.40;98119.00;;;;2093559;28;20234;-47
2020/12/05 01:59:03;;;;;;;6.90;6.20;;;;;20.40;98122.00;;;;2094110;28;20221;-47
2020/12/05 02:00:04;;;;;;;7.07;6.37;;;;;20.30;98120.00;;;;2091258;28;20213;-47
2020/12/05 02:01:05;;;;;;;6.53;5.93;;;;;20.30;98118.00;;;;2093683;28;20611;-46
2020/12/05 02:02:06;;;;;;;7.23;6.57;;;;;20.30;98117.00;;;;2093232;28;20442;-47
2020/12/05 02:03:07;;;;;;;6.13;5.63;;;;;20.30;98118.00;;;;2093833;28;20202;-47
2020/12/05 02:04:07;;;;;;;6.77;6.17;;;;;20.30;98115.00;;;;2095293;28;20670;-46
2020/12/05 02:05:24;;;;;;;7.27;6.67;;;;;20.30;98118.00;;;;2088953;28;20228;-47
2020/12/05 02:06:39;;;;;;;6.68;6.15;;;;;20.30;98117.00;;;;2095293;28;20213;-47
2020/12/05 02:07:49;;;;;;;7.20;6.50;;;;;20.30;98119.00;;;;2088567;28;20272;-47
2020/12/05 02:08:55;;;;;;;6.88;6.28;;;;;20.30;98111.00;;;;2095830;28;20292;-46
2020/12/05 02:09:56;;;;;;;6.60;6.00;;;;;20.30;98127.00;;;;2092125;28;20957;-47
2020/12/05 02:10:56;;;;;;;7.40;6.53;;;;;20.30;98129.00;;;;2087390;28;20230;-47
2020/12/05 02:12:23;;;;;;;6.90;6.30;;;;;20.30;98130.00;;;;2091729;28;20312;-47
2020/12/05 02:13:30;;;;;;;6.78;6.18;;;;;20.30;98133.00;;;;2093544;28;20222;-47
2020/12/05 02:14:31;;;;;;;6.60;6.00;;;;;20.30;98136.00;;;;2088165;28;20234;-46
2020/12/05 02:15:31;;;;;;;6.20;5.63;;;;;20.30;98125.00;;;;2079820;28;20568;-47
2020/12/05 02:16:31;;;;;;;6.17;5.57;;;;;20.30;98131.00;;;;2079100;28;20250;-47
2020/12/05 02:17:34;;;;;;;6.30;5.70;;;;;20.20;98134.00;;;;2094538;28;20288;-47
2020/12/05 02:18:34;;;;;;;6.43;5.82;;;;;20.30;98133.00;;;;2072252;28;20628;-47
2020/12/05 02:19:51;;;;;;;6.83;6.23;;;;;20.30;98129.00;;;;2082433;28;20213;-46
2020/12/05 02:20:52;;;;;;;6.00;5.45;;;;;20.30;98133.00;;;;2091187;28;20217;-48
2020/12/05 02:21:53;;;;;;;6.53;5.93;;;;;20.30;98124.00;;;;2087244;28;21071;-47
2020/12/05 02:22:53;;;;;;;6.35;5.85;;;;;20.30;98128.00;;;;2070911;28;20231;-48
2020/12/05 02:23:53;;;;;;;6.30;5.80;;;;;20.30;98130.00;;;;2087308;28;20751;-47
2020/12/05 02:24:56;;;;;;;6.67;6.00;;;;;20.30;98128.00;;;;2093513;28;20812;-47
2020/12/05 02:25:59;;;;;;;6.18;5.68;;;;;20.30;98129.00;;;;2083384;28;20308;-47
2020/12/05 02:26:59;;;;;;;6.35;5.70;;;;;20.30;98130.00;;;;2087281;28;20296;-47
2020/12/05 02:28:04;;;;;;;6.07;5.57;;;;;20.30;98133.00;;;;2092014;28;20709;-47
2020/12/05 02:29:04;;;;;;;6.25;5.75;;;;;20.30;98135.00;;;;2091061;28;20220;-47
2020/12/05 02:30:04;;;;;;;6.17;5.57;;;;;20.30;98135.00;;;;2087548;28;20246;-46
2020/12/05 02:31:06;;;;;;;6.13;5.63;;;;;20.20;98137.00;;;;2090590;28;20217;-47
2020/12/05 02:32:06;;;;;;;5.90;5.40;;;;;20.30;98140.00;;;;2093699;28;20268;-47
2020/12/05 02:33:07;;;;;;;6.00;5.50;;;;;20.30;98143.00;;;;2093522;28;20233;-47
2020/12/05 02:34:07;;;;;;;6.70;6.10;;;;;20.20;98144.00;;;;2090554;28;20231;-47
2020/12/05 02:35:08;;;;;;;6.07;5.47;;;;;20.20;98146.00;;;;2087639;28;20338;-47
2020/12/05 02:36:08;;;;;;;6.07;5.57;;;;;20.20;98142.00;;;;2087943;28;20679;-47
2020/12/05 02:37:12;;;;;;;5.50;5.00;;;;;20.20;98149.00;;;;2087185;28;20764;-47
2020/12/05 02:38:32;;;;;;;6.07;5.57;;;;;20.20;98152.00;;;;2087289;28;20261;-47
2020/12/05 02:39:32;;;;;;;5.50;5.00;;;;;20.20;98151.00;;;;2079733;28;20219;-47
2020/12/05 02:40:32;;;;;;;6.07;5.57;;;;;20.20;98149.00;;;;2085095;28;20228;-47
2020/12/05 02:41:37;;;;;;;5.77;5.30;;;;;20.20;98156.00;;;;2095558;28;20223;-47
2020/12/05 02:42:37;;;;;;;5.90;5.40;;;;;20.20;98160.00;;;;2095430;28;20217;-47
2020/12/05 02:43:37;;;;;;;5.90;5.47;;;;;20.20;98158.00;;;;2096287;28;20205;-46
2020/12/05 02:44:51;;;;;;;5.13;4.73;;;;;20.20;98156.00;;;;2095137;28;20206;-46
2020/12/05 02:45:52;;;;;;;5.47;5.07;;;;;20.20;98155.00;;;;2095744;28;20266;-47
2020/12/05 02:46:52;;;;;;;6.30;5.70;;;;;20.20;98161.00;;;;2095401;28;20379;-47
2020/12/05 02:47:53;;;;;;;6.97;5.60;;;;;20.20;98156.00;;;;2095041;28;20532;-47
2020/12/05 02:48:53;;;;;;;5.60;5.10;;;;;20.20;98154.00;;;;2096227;28;20260;-47
2020/12/05 02:49:53;;;;;;;6.33;5.73;;;;;20.20;98156.00;;;;2096306;28;20264;-46
2020/12/05 02:50:54;;;;;;;5.70;5.20;;;;;20.20;98160.00;;;;2096154;28;20301;-47
2020/12/05 02:51:54;;;;;;;5.57;5.07;;;;;20.20;98160.00;;;;2096257;28;20225;-46
2020/12/05 02:52:54;;;;;;;5.90;5.43;;;;;20.20;98159.00;;;;2095980;28;20557;-47
2020/12/05 02:53:57;;;;;;;6.27;5.67;;;;;20.20;98161.00;;;;2094206;28;20216;-47
2020/12/05 02:54:57;;;;;;;5.90;5.40;;;;;20.20;98155.00;;;;2092680;28;20215;-47
2020/12/05 02:55:58;;;;;;;5.90;5.40;;;;;20.20;98156.00;;;;2093619;28;20209;-47
2020/12/05 02:57:01;;;;;;;5.90;5.33;;;;;20.20;98151.00;;;;2091559;28;20719;-47
2020/12/05 02:58:02;;;;;;;5.45;5.05;;;;;20.20;98152.00;;;;2087665;28;20229;-47
2020/12/05 02:59:02;;;;;;;5.40;5.00;;;;;20.20;98150.00;;;;2087792;28;20273;-47
2020/12/05 03:00:04;;;;;;;5.80;5.20;;;;;20.20;98151.00;;;;2092535;28;20697;-47
2020/12/05 03:01:04;;;;;;;5.47;4.97;;;;;20.20;98154.00;;;;2093289;28;20218;-47
2020/12/05 03:02:04;;;;;;;6.03;5.53;;;;;20.20;98150.00;;;;2093540;28;20198;-47
2020/12/05 03:03:05;;;;;;;5.50;5.00;;;;;20.20;98153.00;;;;2089215;28;20216;-47
2020/12/05 03:04:05;;;;;;;5.23;4.83;;;;;20.20;98151.00;;;;2087970;28;20218;-47
2020/12/05 03:05:05;;;;;;;6.37;5.30;;;;;20.20;98153.00;;;;2087326;28;20922;-47
2020/12/05 03:06:06;;;;;;;5.77;5.27;;;;;20.20;98151.00;;;;2087863;28;20690;-47
2020/12/05 03:07:06;;;;;;;5.00;4.60;;;;;20.20;98152.00;;;;2092327;28;20594;-47
2020/12/05 03:08:07;;;;;;;5.20;4.80;;;;;20.20;98156.00;;;;2095377;28;20240;-47
2020/12/05 03:09:08;;;;;;;5.80;5.27;;;;;20.20;98155.00;;;;2090311;28;20231;-47
2020/12/05 03:10:09;;;;;;;5.05;4.65;;;;;20.10;98150.00;;;;2087688;28;20230;-47
2020/12/05 03:11:10;;;;;;;5.18;4.57;;;;;20.10;98149.00;;;;2087775;28;20294;-47
2020/12/05 03:12:10;;;;;;;5.50;5.10;;;;;20.10;98156.00;;;;2079682;28;20233;-47
2020/12/05 03:13:11;;;;;;;5.37;4.87;;;;;20.10;98148.00;;;;2095530;28;20201;-47
2020/12/05 03:14:11;;;;;;;5.50;5.00;;;;;20.10;98155.00;;;;2093656;28;20206;-47
2020/12/05 03:15:11;;;;;;;5.30;4.80;;;;;20.10;98150.00;;;;2087111;28;20210;-47
2020/12/05 03:16:12;;;;;;;5.70;5.20;;;;;20.10;98144.00;;;;2087726;28;20236;-47
2020/12/05 03:17:12;;;;;;;5.10;4.70;;;;;20.10;98145.00;;;;2087814;28;20207;-47
2020/12/05 03:18:12;;;;;;;5.20;4.80;;;;;20.10;98150.00;;;;2087656;28;20555;-47
2020/12/05 03:19:13;;;;;;;5.43;4.93;;;;;20.10;98156.00;;;;2087291;28;20206;-47
2020/12/05 03:20:13;;;;;;;4.93;4.53;;;;;20.10;98149.00;;;;2087396;28;20240;-47
2020/12/05 03:21:13;;;;;;;4.70;4.30;;;;;20.10;98145.00;;;;2087625;28;20209;-47
2020/12/05 03:22:14;;;;;;;4.90;4.50;;;;;20.10;98149.00;;;;2087578;28;20210;-47
2020/12/05 03:23:14;;;;;;;4.60;4.20;;;;;20.10;98152.00;;;;2094549;28;20618;-47
2020/12/05 03:24:14;;;;;;;5.60;5.20;;;;;20.10;98152.00;;;;2095598;28;20702;-47
2020/12/05 03:25:15;;;;;;;5.57;5.00;;;;;20.10;98157.00;;;;2095626;28;20701;-47
2020/12/05 03:26:15;;;;;;;5.10;4.70;;;;;20.10;98156.00;;;;2095815;28;20690;-47
2020/12/05 03:27:15;;;;;;;5.67;5.17;;;;;20.10;98155.00;;;;2095832;28;20210;-47
2020/12/05 03:28:16;;;;;;;5.17;4.77;;;;;20.10;98152.00;;;;2095909;28;20206;-46
2020/12/05 03:29:16;;;;;;;5.23;4.80;;;;;20.10;98159.00;;;;2095850;28;20209;-47
2020/12/05 03:30:16;;;;;;;5.17;4.77;;;;;20.10;98156.00;;;;2091229;28;20242;-47
2020/12/05 03:31:38;;;;;;;4.80;4.40;;;;;20.10;98157.00;;;;2093233;28;20206;-47
2020/12/05 03:32:39;;;;;;;5.15;4.75;;;;;20.00;98158.00;;;;2092491;28;20214;-47
2020/12/05 03:33:41;;;;;;;5.00;4.60;;;;;20.10;98167.00;;;;2093199;28;20212;-47
2020/12/05 03:34:42;;;;;;;5.10;4.70;;;;;20.10;98161.00;;;;2092548;28;20781;-47
2020/12/05 03:35:42;;;;;;;4.40;4.00;;;;;20.10;98172.00;;;;2093239;28;20239;-47
2020/12/05 03:36:43;;;;;;;4.80;4.40;;;;;20.10;98165.00;;;;2087418;28;21017;-47
2020/12/05 03:37:43;;;;;;;4.85;4.45;;;;;20.10;98162.00;;;;2087265;28;21139;-47
2020/12/05 03:38:46;;;;;;;5.20;4.80;;;;;20.10;98165.00;;;;2087334;28;20305;-46
2020/12/05 03:39:46;;;;;;;4.97;4.57;;;;;20.10;98164.00;;;;2087486;28;20212;-47
2020/12/05 03:40:47;;;;;;;5.20;4.70;;;;;20.10;98165.00;;;;2086647;28;20301;-47
2020/12/05 03:41:47;;;;;;;4.97;4.57;;;;;20.00;98159.00;;;;2087216;28;20241;-48
2020/12/05 03:42:47;;;;;;;5.30;4.80;;;;;20.00;98161.00;;;;2091307;28;20233;-47
2020/12/05 03:43:48;;;;;;;5.27;4.77;;;;;20.10;98167.00;;;;2100624;28;20217;-47
2020/12/05 03:44:48;;;;;;;5.87;5.30;;;;;20.00;98162.00;;;;2099833;28;20333;-47
2020/12/05 03:45:48;;;;;;;5.00;4.60;;;;;20.00;98166.00;;;;2092196;28;20275;-47
2020/12/05 03:46:48;;;;;;;4.50;4.10;;;;;20.00;98164.00;;;;2087551;28;20240;-46
2020/12/05 03:47:49;;;;;;;5.40;4.90;;;;;20.00;98168.00;;;;2089777;28;20218;-47
2020/12/05 03:48:49;;;;;;;5.23;4.73;;;;;20.00;98159.00;;;;2092329;28;20299;-47
2020/12/05 03:49:50;;;;;;;4.60;4.20;;;;;20.00;98162.00;;;;2092981;28;20220;-47
2020/12/05 03:50:50;;;;;;;4.90;4.50;;;;;20.00;98162.00;;;;2091840;28;20227;-47
2020/12/05 03:51:50;;;;;;;4.43;4.03;;;;;20.00;98168.00;;;;2087494;28;20221;-47
2020/12/05 03:52:51;;;;;;;5.20;4.80;;;;;20.00;98172.00;;;;2085507;28;20210;-47
2020/12/05 03:53:51;;;;;;;4.90;4.50;;;;;20.00;98171.00;;;;2086481;28;20260;-47
2020/12/05 03:54:51;;;;;;;4.80;4.40;;;;;20.00;98175.00;;;;2089861;28;20309;-47
2020/12/05 03:55:52;;;;;;;4.80;4.40;;;;;20.00;98172.00;;;;2092844;28;20215;-47
2020/12/05 03:56:53;;;;;;;4.85;4.40;;;;;20.00;98169.00;;;;2092769;28;20217;-47
2020/12/05 03:57:53;;;;;;;4.83;4.43;;;;;20.00;98176.00;;;;2091008;28;20226;-47
2020/12/05 03:58:54;;;;;;;4.67;4.37;;;;;20.00;98177.00;;;;2091036;28;20233;-47
2020/12/05 03:59:54;;;;;;;4.77;4.27;;;;;20.00;98178.00;;;;2094717;28;20896;-47
2020/12/05 04:00:54;;;;;;;5.10;4.70;;;;;20.00;98183.00;;;;2095409;28;20302;-47
2020/12/05 04:01:55;;;;;;;4.70;4.30;;;;;20.00;98183.00;;;;2095517;28;20217;-47
2020/12/05 04:02:55;;;;;;;5.07;4.67;;;;;20.00;98184.00;;;;2095040;28;21059;-47
2020/12/05 04:03:55;;;;;;;4.87;4.47;;;;;20.00;98185.00;;;;2094735;28;20206;-47
2020/12/05 04:04:56;;;;;;;4.20;3.80;;;;;20.00;98183.00;;;;2093994;28;20221;-47
2020/12/05 04:05:56;;;;;;;4.60;4.20;;;;;20.00;98193.00;;;;2092960;28;20579;-47
2020/12/05 04:06:56;;;;;;;4.10;3.80;;;;;20.00;98195.00;;;;2092793;28;20228;-47
2020/12/05 04:07:57;;;;;;;5.27;4.77;;;;;20.00;98193.00;;;;2090064;28;20280;-47
2020/12/05 04:08:57;;;;;;;4.63;4.33;;;;;20.00;98189.00;;;;2086400;28;20226;-47
2020/12/05 04:09:57;;;;;;;4.63;4.23;;;;;20.00;98187.00;;;;2086518;28;20560;-47
2020/12/05 04:10:58;;;;;;;4.73;4.33;;;;;20.00;98190.00;;;;2086062;28;20214;-46
2020/12/05 04:11:58;;;;;;;4.93;4.53;;;;;20.00;98186.00;;;;2087167;28;20301;-47
2020/12/05 04:12:59;;;;;;;4.73;4.33;;;;;20.00;98189.00;;;;2084254;28;20333;-46
2020/12/05 04:13:59;;;;;;;4.23;3.90;;;;;20.00;98190.00;;;;2087259;28;20215;-47
2020/12/05 04:14:59;;;;;;;3.90;3.60;;;;;20.00;98193.00;;;;2086626;28;20234;-47
2020/12/05 04:16:00;;;;;;;4.80;4.43;;;;;20.00;98193.00;;;;2087108;28;20217;-47
2020/12/05 04:17:00;;;;;;;4.43;4.13;;;;;20.00;98197.00;;;;2086999;28;20214;-47
2020/12/05 04:18:00;;;;;;;4.97;4.20;;;;;20.00;98195.00;;;;2086393;28;20942;-47
2020/12/05 04:19:01;;;;;;;4.90;4.50;;;;;20.00;98198.00;;;;2086778;28;20218;-47
2020/12/05 04:20:01;;;;;;;3.97;3.63;;;;;20.00;98201.00;;;;2080054;28;21111;-47
2020/12/05 04:21:04;;;;;;;4.57;4.17;;;;;20.00;98195.00;;;;2093260;28;20209;-47
2020/12/05 04:22:04;;;;;;;4.40;4.00;;;;;20.00;98208.00;;;;2085264;28;20211;-47
2020/12/05 04:23:05;;;;;;;4.57;4.17;;;;;20.00;98206.00;;;;2085887;28;20229;-47
2020/12/05 04:24:05;;;;;;;4.03;3.73;;;;;19.90;98204.00;;;;2086592;28;20218;-46
2020/12/05 04:25:05;;;;;;;4.33;4.00;;;;;20.00;98199.00;;;;2086059;28;20221;-47
2020/12/05 04:26:06;;;;;;;3.97;3.67;;;;;19.90;98199.00;;;;2086307;28;20344;-47
2020/12/05 04:27:06;;;;;;;4.00;3.70;;;;;19.90;98198.00;;;;2091955;28;20217;-47
2020/12/05 04:28:06;;;;;;;4.40;4.10;;;;;19.90;98201.00;;;;2093802;28;20214;-47
2020/12/05 04:29:07;;;;;;;4.70;4.30;;;;;20.00;98201.00;;;;2094472;28;20212;-47
2020/12/05 04:30:07;;;;;;;4.53;4.13;;;;;20.00;98208.00;;;;2095028;28;20214;-47
2020/12/05 04:31:07;;;;;;;4.03;3.73;;;;;19.90;98190.00;;;;2094877;28;20214;-47
2020/12/05 04:32:08;;;;;;;4.07;3.77;;;;;19.90;98200.00;;;;2094589;28;20216;-47
2020/12/05 04:33:08;;;;;;;4.07;3.77;;;;;19.90;98199.00;;;;2094725;28;20599;-47
2020/12/05 04:34:08;;;;;;;4.60;4.20;;;;;19.90;98206.00;;;;2094817;28;20649;-52
2020/12/05 04:35:10;;;;;;;4.20;3.87;;;;;19.90;98199.00;;;;2093717;28;20221;-50
2020/12/05 04:36:10;;;;;;;4.63;4.22;;;;;19.90;98196.00;;;;2092283;28;20763;-47
2020/12/05 04:37:10;;;;;;;4.30;4.00;;;;;19.90;98198.00;;;;2092003;28;20218;-47
2020/12/05 04:38:11;;;;;;;4.23;3.93;;;;;19.90;98200.00;;;;2085638;28;20219;-47
2020/12/05 04:39:11;;;;;;;3.70;3.40;;;;;19.90;98196.00;;;;2086009;28;20322;-47
2020/12/05 04:40:11;;;;;;;3.90;3.60;;;;;19.90;98190.00;;;;2086400;28;20222;-47
2020/12/05 04:41:12;;;;;;;4.40;4.00;;;;;19.90;98194.00;;;;2086763;28;20713;-47
2020/12/05 04:42:12;;;;;;;4.00;3.70;;;;;19.90;98194.00;;;;2087190;28;21150;-47
2020/12/05 04:43:12;;;;;;;4.40;4.10;;;;;19.90;98196.00;;;;2087054;28;20572;-47
2020/12/05 04:44:13;;;;;;;4.13;3.83;;;;;19.90;98199.00;;;;2086390;28;20744;-47
2020/12/05 04:45:13;;;;;;;4.20;3.80;;;;;19.90;98200.00;;;;2083853;28;20215;-47
2020/12/05 04:46:13;;;;;;;4.43;4.13;;;;;19.90;98203.00;;;;2086320;28;20219;-47
2020/12/05 04:47:15;;;;;;;5.20;3.90;;;;;19.90;98214.00;;;;2094407;28;20646;-46
2020/12/05 04:48:16;;;;;;;4.50;4.20;;;;;19.90;98208.00;;;;2094680;28;20268;-47
2020/12/05 04:49:16;;;;;;;3.93;3.63;;;;;19.90;98210.00;;;;2087938;28;20233;-47
2020/12/05 04:50:17;;;;;;;4.20;3.90;;;;;19.90;98208.00;;;;2086801;28;20205;-47
2020/12/05 04:51:17;;;;;;;4.00;3.70;;;;;19.90;98209.00;;;;2086598;28;20211;-45
2020/12/05 04:52:20;;;;;;;4.40;3.83;;;;;19.90;98208.00;;;;2086095;28;20271;-49
2020/12/05 04:53:21;;;;;;;4.20;3.90;;;;;19.90;98204.00;;;;2086425;28;20218;-47
2020/12/05 04:54:26;;;;;;;4.60;4.20;;;;;19.90;98200.00;;;;2086777;28;20229;-46
2020/12/05 04:55:26;;;;;;;4.10;3.80;;;;;19.90;98211.00;;;;2086076;28;20222;-47
2020/12/05 04:56:26;;;;;;;6.07;4.17;;;;;19.90;98204.00;;;;2085912;28;20359;-45
2020/12/05 04:57:27;;;;;;;4.23;3.93;;;;;19.90;98211.00;;;;2069488;28;20197;-48
2020/12/05 04:58:28;;;;;;;4.13;3.83;;;;;19.90;98210.00;;;;2085878;28;20209;-45
2020/12/05 04:59:28;;;;;;;3.67;3.43;;;;;19.90;98213.00;;;;2087298;28;20453;-45
2020/12/05 05:00:29;;;;;;;4.03;3.63;;;;;19.90;98217.00;;;;2085880;28;20301;-50
2020/12/05 05:01:29;;;;;;;4.40;4.03;;;;;19.90;98221.00;;;;2085862;28;20221;-46
2020/12/05 05:02:29;;;;;;;4.20;3.90;;;;;19.90;98221.00;;;;2085088;28;20570;-45
2020/12/05 05:03:30;;;;;;;3.83;3.53;;;;;19.90;98227.00;;;;2083987;28;20244;-45
2020/12/05 05:04:30;;;;;;;3.70;3.40;;;;;19.90;98226.00;;;;2093121;28;20209;-45